Time;durP1;ratioP1;P1;durP2;ratioP2;P2;SDS_P1;SDS_P2;PMS_P1;PMS_P2;Temp;Humidity;BMP_temperature;BMP_pressure;BME280_temperature;BME280_humidity;BME280_pressure;Samples;Min_cycle;Max_cycle;Signal;HPM_P1;HPM_P2
2023/09/28 00:01:37;;;;;;;12.13;6.75;;;13.70;99.90;;;;;;5098849;28;20093;-63
2023/09/28 00:04:06;;;;;;;8.98;6.78;;;13.50;99.90;;;;;;5105564;28;20052;-63
2023/09/28 00:06:33;;;;;;;10.15;6.65;;;13.40;99.90;;;;;;5091661;28;20524;-63
2023/09/28 00:09:00;;;;;;;16.10;6.07;;;13.30;99.90;;;;;;5098403;28;20067;-62
2023/09/28 00:11:27;;;;;;;13.10;7.07;;;13.20;99.90;;;;;;5106018;28;20036;-61
2023/09/28 00:13:53;;;;;;;9.70;6.72;;;13.20;99.90;;;;;;5100774;28;20491;-62
2023/09/28 00:16:21;;;;;;;16.23;8.13;;;13.20;99.90;;;;;;5105086;28;20464;-63
2023/09/28 00:18:47;;;;;;;12.57;6.95;;;13.20;99.90;;;;;;5105351;27;20044;-63
2023/09/28 00:21:14;;;;;;;10.10;7.07;;;13.20;99.90;;;;;;5093341;28;20142;-63
2023/09/28 00:23:41;;;;;;;11.52;7.20;;;13.20;99.90;;;;;;5106339;28;20373;-63
2023/09/28 00:26:08;;;;;;;14.77;7.55;;;13.10;99.90;;;;;;5109781;28;20043;-63
2023/09/28 00:28:36;;;;;;;11.27;7.70;;;13.20;99.90;;;;;;5084206;28;20136;-62
2023/09/28 00:31:05;;;;;;;10.65;6.75;;;13.10;99.90;;;;;;5088695;28;20120;-63
2023/09/28 00:33:32;;;;;;;7.78;5.75;;;13.10;99.90;;;;;;5081563;28;20178;-63
2023/09/28 00:35:59;;;;;;;10.43;6.18;;;13.10;99.90;;;;;;5089210;28;20102;-63
2023/09/28 00:38:25;;;;;;;9.55;6.43;;;12.90;99.90;;;;;;5090727;28;20484;-63
2023/09/28 00:40:52;;;;;;;9.23;6.75;;;12.90;99.90;;;;;;5088846;28;20426;-62
2023/09/28 00:43:26;;;;;;;13.75;7.50;;;12.80;99.90;;;;;;5103194;28;20047;-63
2023/09/28 00:45:53;;;;;;;13.85;7.85;;;12.70;99.90;;;;;;5079614;28;20075;-63
2023/09/28 00:48:20;;;;;;;13.45;8.40;;;12.70;99.90;;;;;;5110494;28;20046;-62
2023/09/28 00:50:47;;;;;;;;;;;12.70;99.90;;;;;;5112293;27;20035;-62
2023/09/28 00:53:20;;;;;;;16.02;8.02;;;12.60;99.90;;;;;;5085563;28;19920;-63
2023/09/28 00:55:48;;;;;;;13.50;7.80;;;12.60;99.90;;;;;;5105425;28;20114;-61
2023/09/28 00:58:16;;;;;;;12.30;8.07;;;12.60;99.90;;;;;;5075748;28;20035;-63
2023/09/28 01:00:42;;;;;;;11.63;7.53;;;12.60;99.90;;;;;;5082105;28;20082;-61
2023/09/28 01:03:11;;;;;;;13.55;8.02;;;12.60;99.90;;;;;;5080260;28;20040;-62
2023/09/28 01:05:40;;;;;;;11.93;7.30;;;12.60;99.90;;;;;;5104387;28;20553;-63
2023/09/28 01:08:14;;;;;;;14.80;7.75;;;12.60;99.90;;;;;;5092003;28;20101;-63
2023/09/28 01:10:42;;;;;;;10.52;7.05;;;12.60;99.90;;;;;;5092031;28;20050;-62
2023/09/28 01:13:12;;;;;;;;;;;12.60;99.90;;;;;;5101102;28;20052;-62
2023/09/28 01:15:40;;;;;;;18.58;7.25;;;12.50;99.90;;;;;;5110619;28;19970;-62
2023/09/28 01:18:12;;;;;;;17.20;7.72;;;12.50;99.90;;;;;;5101015;28;20097;-63
2023/09/28 01:20:39;;;;;;;15.55;7.03;;;12.50;99.90;;;;;;5110235;28;20088;-63
2023/09/28 01:23:07;;;;;;;14.43;7.53;;;12.40;99.90;;;;;;5096769;28;20078;-63
2023/09/28 01:25:34;;;;;;;13.57;7.15;;;12.40;99.90;;;;;;5092052;28;20027;-61
2023/09/28 01:28:01;;;;;;;11.07;7.50;;;12.30;99.90;;;;;;5115932;28;20046;-62
2023/09/28 01:30:28;;;;;;;17.70;8.30;;;12.30;99.90;;;;;;5090648;28;20451;-62
2023/09/28 01:32:55;;;;;;;16.65;7.82;;;12.20;99.90;;;;;;5086414;28;20039;-63
2023/09/28 01:35:23;;;;;;;17.42;8.43;;;12.30;99.90;;;;;;5101671;28;20043;-62
2023/09/28 01:38:38;;;;;;;10.75;7.38;;;12.30;99.90;;;;;;5090843;28;20135;-62
2023/09/28 01:41:05;;;;;;;14.85;7.05;;;12.20;99.90;;;;;;5088726;28;20059;-62
2023/09/28 01:43:32;;;;;;;12.65;7.20;;;12.20;99.90;;;;;;5089048;28;20067;-62
2023/09/28 01:45:59;;;;;;;16.73;6.78;;;12.10;99.90;;;;;;5096553;27;20038;-63
2023/09/28 01:48:25;;;;;;;14.32;7.18;;;12.10;99.90;;;;;;5095335;28;20048;-62
2023/09/28 01:50:52;;;;;;;11.73;7.13;;;12.10;99.90;;;;;;5092467;28;20120;-62
2023/09/28 01:53:21;;;;;;;10.73;6.75;;;12.10;99.90;;;;;;5085849;28;20035;-62
2023/09/28 01:55:50;;;;;;;11.57;7.13;;;12.00;99.90;;;;;;5109125;28;20051;-61
2023/09/28 01:58:17;;;;;;;11.40;6.78;;;12.10;99.90;;;;;;5078641;28;20040;-62
2023/09/28 02:00:46;;;;;;;15.63;8.30;;;12.00;99.90;;;;;;5113491;28;20039;-61
2023/09/28 02:03:14;;;;;;;10.98;7.35;;;12.00;99.90;;;;;;5094722;28;20047;-63
2023/09/28 02:05:42;;;;;;;13.63;6.88;;;12.00;99.90;;;;;;5111551;28;20510;-61
2023/09/28 02:08:09;;;;;;;17.42;7.88;;;12.00;99.90;;;;;;5095193;28;20043;-63
2023/09/28 02:10:36;;;;;;;14.63;7.32;;;11.90;99.90;;;;;;5096540;28;20484;-62
2023/09/28 02:13:04;;;;;;;15.32;6.85;;;11.90;99.90;;;;;;5094076;28;20048;-61
2023/09/28 02:15:32;;;;;;;12.70;6.78;;;11.90;99.90;;;;;;5095119;28;20056;-62
2023/09/28 02:17:59;;;;;;;9.93;6.75;;;11.90;99.90;;;;;;5112089;28;20040;-62
2023/09/28 02:20:26;;;;;;;15.00;6.57;;;11.90;99.90;;;;;;5107273;27;20139;-62
2023/09/28 02:22:53;;;;;;;14.38;7.55;;;11.80;99.90;;;;;;5072716;28;20134;-62
2023/09/28 02:25:21;;;;;;;;;;;11.80;99.90;;;;;;5084893;28;20428;-62
2023/09/28 02:27:49;;;;;;;13.60;6.90;;;11.80;99.90;;;;;;5110238;27;19920;-61
2023/09/28 02:30:19;;;;;;;18.08;7.65;;;11.80;99.90;;;;;;5113829;27;20040;-63
2023/09/28 02:32:49;;;;;;;13.68;7.15;;;11.80;99.90;;;;;;5094989;28;20031;-61
2023/09/28 02:35:17;;;;;;;12.88;6.88;;;11.70;99.90;;;;;;5090432;28;20096;-63
2023/09/28 02:37:46;;;;;;;13.35;6.43;;;11.70;99.90;;;;;;5114402;27;20063;-61
2023/09/28 02:40:14;;;;;;;10.93;6.60;;;11.70;99.90;;;;;;5087562;28;20043;-62
2023/09/28 02:42:42;;;;;;;14.32;6.68;;;11.60;99.90;;;;;;5117273;27;20043;-62
2023/09/28 02:45:13;;;;;;;9.85;6.00;;;11.50;99.90;;;;;;5092057;28;20051;-62
2023/09/28 02:47:47;;;;;;;11.10;6.22;;;11.60;99.90;;;;;;5118104;27;20043;-62
2023/09/28 02:50:16;;;;;;;8.13;5.88;;;11.50;99.90;;;;;;5094172;28;20039;-61
2023/09/28 02:52:46;;;;;;;13.48;6.47;;;11.50;99.90;;;;;;5116099;27;20031;-61
2023/09/28 02:55:13;;;;;;;14.13;6.32;;;11.50;99.90;;;;;;5094560;28;20057;-62
2023/09/28 02:57:43;;;;;;;12.48;6.70;;;11.50;99.90;;;;;;5094385;28;20035;-62
2023/09/28 03:00:28;;;;;;;12.93;6.97;;;11.50;99.90;;;;;;5092973;28;20430;-61
2023/09/28 03:02:58;;;;;;;14.77;7.35;;;11.50;99.90;;;;;;5098882;28;20496;-63
2023/09/28 03:05:26;;;;;;;13.05;6.97;;;11.50;99.90;;;;;;5094066;28;20040;-62
2023/09/28 03:07:53;;;;;;;17.15;7.32;;;11.60;99.90;;;;;;5093493;28;20036;-62
2023/09/28 03:10:21;;;;;;;10.77;6.68;;;11.50;99.90;;;;;;5094068;28;20035;-61
2023/09/28 03:12:51;;;;;;;11.80;6.72;;;11.50;99.90;;;;;;5095031;28;20047;-61
2023/09/28 03:15:19;;;;;;;12.40;6.80;;;11.50;99.90;;;;;;5092712;28;20040;-61
2023/09/28 03:17:46;;;;;;;14.90;8.60;;;11.50;99.90;;;;;;5094293;28;20067;-62
2023/09/28 03:20:17;;;;;;;12.38;7.07;;;11.50;99.90;;;;;;5092141;28;20048;-64
2023/09/28 03:22:46;;;;;;;12.38;6.95;;;11.50;99.90;;;;;;5085055;28;20052;-62
2023/09/28 03:25:17;;;;;;;16.30;7.63;;;11.50;99.90;;;;;;5091255;28;20040;-61
2023/09/28 03:27:47;;;;;;;15.85;8.00;;;11.40;99.90;;;;;;5091347;28;20046;-60
2023/09/28 03:30:15;;;;;;;13.82;7.38;;;11.50;99.90;;;;;;5101439;28;20070;-62
2023/09/28 03:32:43;;;;;;;12.13;6.85;;;11.40;99.90;;;;;;5082306;28;20102;-62
2023/09/28 03:35:10;;;;;;;14.52;7.28;;;11.40;99.90;;;;;;5102806;28;20128;-62
2023/09/28 03:37:37;;;;;;;16.08;9.55;;;11.40;99.90;;;;;;5109560;28;20047;-62
2023/09/28 03:40:10;;;;;;;19.30;9.50;;;11.50;99.90;;;;;;5110649;28;20051;-63
2023/09/28 03:42:42;;;;;;;12.68;5.95;;;11.60;99.90;;;;;;5105592;28;20511;-62
2023/09/28 03:45:10;;;;;;;14.90;7.45;;;11.60;99.90;;;;;;5102987;28;20043;-61
2023/09/28 03:47:41;;;;;;;11.88;6.60;;;11.50;99.90;;;;;;5114279;27;20459;-61
2023/09/28 03:50:10;;;;;;;15.38;8.27;;;11.50;99.90;;;;;;5109054;28;20035;-62
2023/09/28 03:52:38;;;;;;;18.33;10.20;;;11.40;99.90;;;;;;5110710;28;20035;-62
2023/09/28 03:55:12;;;;;;;17.98;8.25;;;11.50;99.90;;;;;;5110964;28;20043;-62
2023/09/28 03:57:42;;;;;;;14.73;7.90;;;11.50;99.90;;;;;;5078782;28;20058;-61
2023/09/28 04:00:12;;;;;;;12.85;7.35;;;11.50;99.90;;;;;;5107396;28;20047;-62
2023/09/28 04:02:41;;;;;;;9.02;6.20;;;11.40;99.90;;;;;;5106528;28;20044;-62
2023/09/28 04:05:08;;;;;;;13.63;5.70;;;11.40;99.90;;;;;;5091260;28;20047;-62
2023/09/28 04:07:36;;;;;;;11.63;6.57;;;11.20;99.90;;;;;;5110117;28;20047;-63
2023/09/28 04:10:03;;;;;;;13.77;7.78;;;11.20;99.90;;;;;;5111425;28;20040;-63
2023/09/28 04:12:30;;;;;;;;;;;11.10;99.90;;;;;;5097060;28;20055;-60
2023/09/28 04:14:56;;;;;;;13.52;7.10;;;11.10;99.90;;;;;;5116720;27;19919;-62
2023/09/28 04:17:24;;;;;;;12.40;7.50;;;11.00;99.90;;;;;;5112164;27;20376;-61
2023/09/28 04:19:52;;;;;;;9.88;7.05;;;11.00;99.90;;;;;;5114841;27;20483;-62
2023/09/28 04:22:19;;;;;;;14.13;6.88;;;11.00;99.90;;;;;;5108789;28;20054;-62
2023/09/28 04:24:45;;;;;;;14.48;7.60;;;11.00;99.90;;;;;;5111207;28;20040;-62
2023/09/28 04:27:12;;;;;;;18.10;7.40;;;11.00;99.90;;;;;;5108865;28;20641;-61
2023/09/28 04:29:40;;;;;;;12.82;6.70;;;11.00;99.90;;;;;;5108651;27;20034;-62
2023/09/28 04:32:07;;;;;;;13.40;6.90;;;11.00;99.90;;;;;;5110099;28;20050;-62
2023/09/28 04:34:34;;;;;;;13.63;5.85;;;11.00;99.90;;;;;;5110612;28;20050;-62
2023/09/28 04:37:02;;;;;;;12.10;6.57;;;10.90;99.90;;;;;;5110858;28;20043;-63
2023/09/28 04:39:29;;;;;;;10.55;6.97;;;10.90;99.90;;;;;;5109501;28;20196;-62
2023/09/28 04:41:58;;;;;;;13.13;7.07;;;10.90;99.90;;;;;;5101960;28;20093;-63
2023/09/28 04:44:25;;;;;;;13.45;7.18;;;10.90;99.90;;;;;;5107279;28;20093;-62
2023/09/28 04:46:51;;;;;;;13.38;6.78;;;10.90;99.90;;;;;;5104864;28;20036;-61
2023/09/28 04:49:18;;;;;;;11.88;6.72;;;10.80;99.90;;;;;;5108579;28;20039;-62
2023/09/28 04:51:46;;;;;;;13.27;6.93;;;10.80;99.90;;;;;;5102287;28;20032;-63
2023/09/28 04:54:13;;;;;;;15.30;7.30;;;10.80;99.90;;;;;;5109427;28;20047;-62
2023/09/28 04:56:40;;;;;;;13.85;6.78;;;10.80;99.90;;;;;;5095011;28;20043;-62
2023/09/28 04:59:08;;;;;;;14.65;7.75;;;10.80;99.90;;;;;;5097589;28;20090;-60
2023/09/28 05:01:35;;;;;;;11.30;7.65;;;10.80;99.90;;;;;;5103288;28;20032;-63
2023/09/28 05:04:03;;;;;;;13.20;7.70;;;10.90;99.90;;;;;;5105413;28;20048;-62
2023/09/28 05:06:29;;;;;;;12.80;7.28;;;11.00;99.90;;;;;;5109190;28;20043;-62
2023/09/28 05:08:56;;;;;;;15.30;7.82;;;11.00;99.90;;;;;;5109286;28;20035;-63
2023/09/28 05:11:23;;;;;;;12.93;6.35;;;10.90;99.90;;;;;;5071990;28;20048;-63
2023/09/28 05:13:51;;;;;;;15.32;7.13;;;10.80;99.90;;;;;;5092905;28;20431;-63
2023/09/28 05:16:19;;;;;;;12.30;6.55;;;10.80;99.90;;;;;;5103231;28;20047;-63
2023/09/28 05:18:46;;;;;;;14.68;7.05;;;10.70;99.90;;;;;;5109680;28;20442;-62
2023/09/28 05:21:13;;;;;;;13.68;6.43;;;10.60;99.90;;;;;;5109965;28;20415;-63
2023/09/28 05:23:42;;;;;;;14.70;7.57;;;10.60;99.90;;;;;;5102676;28;20118;-61
2023/09/28 05:26:09;;;;;;;10.18;6.57;;;10.70;99.90;;;;;;5103475;28;20044;-63
2023/09/28 05:28:36;;;;;;;11.75;6.53;;;10.60;99.90;;;;;;5109232;28;20047;-60
2023/09/28 05:31:03;;;;;;;12.05;7.90;;;10.70;99.90;;;;;;5108253;28;20050;-62
2023/09/28 05:33:31;;;;;;;12.38;7.20;;;10.80;99.90;;;;;;5100180;28;20094;-62
2023/09/28 05:35:58;;;;;;;13.90;7.18;;;10.80;99.90;;;;;;5099903;28;20075;-63
2023/09/28 05:38:24;;;;;;;13.00;7.03;;;10.90;99.90;;;;;;5109020;28;20043;-62
2023/09/28 05:40:51;;;;;;;12.93;7.00;;;10.90;99.90;;;;;;5105857;28;20031;-63
2023/09/28 05:43:18;;;;;;;13.10;8.07;;;10.90;99.90;;;;;;5094900;28;20036;-63
2023/09/28 05:45:45;;;;;;;13.88;7.63;;;10.90;99.90;;;;;;5103749;28;20032;-63
2023/09/28 05:48:12;;;;;;;15.02;8.40;;;11.00;99.90;;;;;;5096953;28;20384;-62
2023/09/28 05:50:40;;;;;;;19.98;8.85;;;11.10;99.90;;;;;;5106191;28;20228;-63
2023/09/28 05:53:07;;;;;;;21.05;9.65;;;11.20;99.90;;;;;;5108494;28;20450;-62
2023/09/28 05:55:34;;;;;;;17.30;7.88;;;11.20;99.90;;;;;;5105141;28;20044;-62
2023/09/28 05:58:01;;;;;;;18.00;9.25;;;11.20;99.90;;;;;;5108784;28;20051;-63
2023/09/28 06:00:28;;;;;;;12.88;8.20;;;11.20;99.90;;;;;;5108944;28;20126;-61
2023/09/28 06:02:54;;;;;;;20.70;9.85;;;11.20;99.90;;;;;;5107910;28;20035;-62
2023/09/28 06:05:21;;;;;;;17.58;10.32;;;11.30;99.90;;;;;;5098559;28;20093;-63
2023/09/28 06:07:48;;;;;;;19.10;10.35;;;11.40;99.90;;;;;;5110496;28;20036;-62
2023/09/28 06:10:15;;;;;;;15.32;9.32;;;11.40;99.90;;;;;;5108041;28;20161;-62
2023/09/28 06:12:42;;;;;;;17.15;8.95;;;11.50;99.90;;;;;;5109005;28;20043;-63
2023/09/28 06:15:09;;;;;;;16.50;9.75;;;11.60;99.90;;;;;;5107179;28;20047;-62
2023/09/28 06:17:36;;;;;;;16.63;9.35;;;11.60;99.90;;;;;;5108405;28;20411;-63
2023/09/28 06:20:05;;;;;;;17.80;10.15;;;11.60;99.90;;;;;;5107366;28;20039;-61
2023/09/28 06:22:33;;;;;;;21.00;10.25;;;11.60;99.90;;;;;;5096606;28;20047;-62
2023/09/28 06:25:00;;;;;;;;;;;11.60;99.90;;;;;;5107464;28;20040;-62
2023/09/28 19:10:59;;;;;;;6.28;3.03;;;15.20;99.90;;;;;;6136724;23;20017;-66
2023/09/28 19:13:26;;;;;;;5.50;3.45;;;15.20;99.90;;;;;;4893791;29;20052;-64
2023/09/28 19:15:53;;;;;;;6.90;3.70;;;15.30;99.90;;;;;;4889891;29;20064;-66
2023/09/28 19:18:23;;;;;;;8.20;3.72;;;15.30;99.90;;;;;;4894168;29;20139;-66
2023/09/28 19:20:50;;;;;;;4.00;2.70;;;15.20;99.90;;;;;;4889413;29;20105;-65
2023/09/28 19:23:17;;;;;;;9.95;3.78;;;15.10;99.90;;;;;;4887261;29;20080;-64
2023/09/28 19:25:45;;;;;;;6.28;3.58;;;15.00;99.90;;;;;;4886528;29;20072;-63
2023/09/28 19:28:16;;;;;;;9.23;3.53;;;14.90;99.90;;;;;;4886038;29;20045;-64
2023/09/28 19:30:45;;;;;;;7.07;3.90;;;15.00;99.90;;;;;;4870185;29;20088;-64
2023/09/28 19:33:12;;;;;;;8.85;3.60;;;14.90;99.90;;;;;;4887551;29;20052;-65
2023/09/28 19:35:39;;;;;;;5.70;3.30;;;14.90;99.90;;;;;;4895635;29;20108;-65
2023/09/28 19:38:07;;;;;;;6.40;3.30;;;14.90;99.90;;;;;;4865925;29;20422;-65
2023/09/28 19:40:34;;;;;;;8.55;3.45;;;14.90;99.90;;;;;;4883735;29;20487;-65
2023/09/28 19:43:04;;;;;;;;;;;14.90;99.90;;;;;;4861169;29;20414;-65
2023/09/28 19:45:34;;;;;;;5.95;3.65;;;14.90;99.90;;;;;;4889354;29;20043;-65
2023/09/28 19:48:02;;;;;;;6.25;3.50;;;15.00;99.90;;;;;;4877448;29;20410;-64
2023/09/28 19:50:29;;;;;;;10.75;3.70;;;14.80;99.90;;;;;;4887989;29;20044;-64
2023/09/28 19:52:56;;;;;;;6.05;3.75;;;14.80;99.90;;;;;;4879698;29;20546;-64
2023/09/28 19:55:23;;;;;;;7.07;4.10;;;14.60;99.90;;;;;;4877579;29;20041;-64
2023/09/28 19:57:50;;;;;;;6.32;3.65;;;14.60;99.90;;;;;;4870384;29;20041;-64
2023/09/28 20:00:17;;;;;;;;;;;14.60;99.90;;;;;;4886832;29;20055;-65
2023/09/28 20:02:45;;;;;;;7.03;3.42;;;14.60;99.90;;;;;;4889592;29;19924;-65
2023/09/28 20:05:12;;;;;;;7.47;3.45;;;14.50;99.90;;;;;;4891092;29;20061;-65
2023/09/28 20:07:43;;;;;;;8.93;4.25;;;14.50;99.90;;;;;;4869023;29;20052;-65
2023/09/28 20:10:11;;;;;;;9.98;3.47;;;14.40;99.90;;;;;;4884330;29;20097;-66
2023/09/28 20:12:38;;;;;;;;;;;14.40;99.90;;;;;;4889323;29;20045;-65
2023/09/28 20:15:06;;;;;;;8.07;3.63;;;14.40;99.90;;;;;;4892999;29;20392;-65
2023/09/28 20:17:33;;;;;;;8.70;3.63;;;14.40;99.90;;;;;;4872581;29;20389;-65
2023/09/28 20:20:01;;;;;;;8.48;3.35;;;14.30;99.90;;;;;;4895702;29;20582;-65
2023/09/28 20:22:30;;;;;;;6.22;3.10;;;14.30;99.90;;;;;;4890307;29;20130;-64
2023/09/28 20:25:11;;;;;;;7.47;3.28;;;14.30;99.90;;;;;;4893333;29;20093;-65
2023/09/28 20:27:38;;;;;;;6.88;3.35;;;14.40;99.90;;;;;;4890050;29;20051;-64
2023/09/28 20:30:05;;;;;;;9.80;3.72;;;14.40;99.90;;;;;;4864510;29;20052;-67
2023/09/28 20:32:34;;;;;;;6.35;3.13;;;14.40;99.90;;;;;;4876845;29;20072;-67
2023/09/28 20:35:03;;;;;;;7.35;3.25;;;14.40;99.90;;;;;;4887057;29;20040;-67
2023/09/28 20:37:30;;;;;;;9.43;3.28;;;14.40;99.90;;;;;;4888009;29;20486;-64
2023/09/28 20:39:57;;;;;;;7.47;3.72;;;14.40;99.90;;;;;;4876920;29;20051;-64
2023/09/28 20:42:24;;;;;;;8.88;3.53;;;14.30;99.90;;;;;;4894476;29;20052;-64
2023/09/28 20:44:51;;;;;;;6.90;3.88;;;14.20;99.90;;;;;;4883298;29;20063;-64
2023/09/28 20:47:18;;;;;;;7.63;3.58;;;14.20;99.90;;;;;;4892144;29;20138;-64
2023/09/28 20:49:44;;;;;;;7.60;3.60;;;14.10;99.90;;;;;;4889462;29;20421;-64
2023/09/28 20:52:11;;;;;;;7.05;3.72;;;14.10;99.90;;;;;;4892203;29;20043;-64
2023/09/28 20:54:38;;;;;;;5.95;2.97;;;14.00;99.90;;;;;;4889459;29;20041;-64
2023/09/28 20:57:05;;;;;;;8.88;3.45;;;14.00;99.90;;;;;;4870904;29;20529;-64
2023/09/28 20:59:31;;;;;;;5.70;3.58;;;14.10;99.90;;;;;;4885895;29;20045;-64
2023/09/28 21:01:58;;;;;;;10.82;3.50;;;13.80;99.90;;;;;;4885482;29;20056;-64
2023/09/28 21:04:25;;;;;;;10.43;3.50;;;13.60;99.90;;;;;;4885390;29;20055;-64
2023/09/28 21:06:53;;;;;;;8.82;4.03;;;13.50;99.90;;;;;;4888994;29;20505;-64
2023/09/28 21:09:20;;;;;;;11.13;6.47;;;13.40;99.90;;;;;;4892381;29;20103;-64
2023/09/28 21:11:48;;;;;;;7.68;3.80;;;13.30;99.90;;;;;;4892786;29;20044;-63
2023/09/28 21:14:15;;;;;;;6.60;3.42;;;13.20;99.90;;;;;;4895484;29;20049;-64
2023/09/28 21:16:42;;;;;;;7.60;3.90;;;13.20;99.90;;;;;;4895366;29;20060;-64
2023/09/28 21:19:09;;;;;;;8.23;3.38;;;13.20;99.90;;;;;;4883211;29;20052;-64
2023/09/28 21:21:36;;;;;;;6.68;3.78;;;13.10;99.90;;;;;;4884287;29;20132;-64
2023/09/28 21:24:04;;;;;;;9.25;4.43;;;13.20;99.90;;;;;;4884724;29;20044;-64
2023/09/28 21:26:31;;;;;;;8.82;3.55;;;13.10;99.90;;;;;;4885091;29;20041;-64
2023/09/28 21:28:58;;;;;;;9.90;3.42;;;13.10;99.90;;;;;;4885445;29;20123;-64
2023/09/28 21:31:25;;;;;;;6.05;3.13;;;13.00;99.90;;;;;;4893761;29;20044;-64
2023/09/28 21:33:52;;;;;;;8.20;3.30;;;13.00;99.90;;;;;;4890313;29;20068;-64
2023/09/28 21:36:19;;;;;;;8.95;3.60;;;13.00;99.90;;;;;;4891001;29;20120;-64
2023/09/28 21:38:45;;;;;;;7.43;3.78;;;13.00;99.90;;;;;;4880890;29;20076;-64
2023/09/28 21:41:13;;;;;;;10.45;3.30;;;13.00;99.90;;;;;;4895435;29;20249;-64
2023/09/28 21:43:40;;;;;;;9.02;3.70;;;13.00;99.90;;;;;;4888182;29;20052;-64
2023/09/28 21:46:08;;;;;;;8.35;3.65;;;13.00;99.90;;;;;;4887222;29;20053;-64
2023/09/28 21:48:38;;;;;;;7.43;3.40;;;12.90;99.90;;;;;;4893938;29;20041;-64
2023/09/28 21:51:05;;;;;;;8.85;3.42;;;12.90;99.90;;;;;;4882567;29;20447;-64
2023/09/28 21:53:32;;;;;;;6.63;3.28;;;12.90;99.90;;;;;;4885711;29;20422;-64
2023/09/28 21:55:59;;;;;;;8.10;3.78;;;12.90;99.90;;;;;;4882695;29;20045;-64
2023/09/28 21:58:26;;;;;;;10.30;4.00;;;12.90;99.90;;;;;;4884877;29;20048;-64
2023/09/28 22:00:53;;;;;;;6.88;3.70;;;12.90;99.90;;;;;;4892095;29;20519;-64
2023/09/28 22:03:20;;;;;;;10.27;3.95;;;12.80;99.90;;;;;;4891008;29;20380;-64
2023/09/28 22:05:49;;;;;;;6.43;3.40;;;12.80;99.90;;;;;;4891130;29;20040;-64
2023/09/28 22:08:15;;;;;;;5.78;3.30;;;12.80;99.90;;;;;;4898548;29;20048;-64
2023/09/28 22:10:42;;;;;;;5.43;3.53;;;12.70;99.90;;;;;;4898409;29;20048;-64
2023/09/28 22:13:09;;;;;;;9.18;4.50;;;12.50;99.90;;;;;;4898388;29;20131;-64
2023/09/28 22:15:36;;;;;;;9.50;3.65;;;12.40;99.90;;;;;;4899121;29;20417;-64
2023/09/28 22:18:04;;;;;;;7.32;4.15;;;12.40;99.90;;;;;;4893155;29;20088;-63
2023/09/28 22:20:32;;;;;;;6.72;3.85;;;12.20;99.90;;;;;;4890591;29;20418;-63
2023/09/28 22:22:59;;;;;;;9.68;3.70;;;12.20;99.90;;;;;;4888223;29;20041;-63
2023/09/28 22:25:26;;;;;;;7.38;3.70;;;12.20;99.90;;;;;;4889133;29;20040;-63
2023/09/28 22:27:53;;;;;;;6.93;3.65;;;12.10;99.90;;;;;;4897823;29;20036;-63
2023/09/28 22:30:20;;;;;;;5.82;3.65;;;12.10;99.90;;;;;;4882215;29;20063;-63
2023/09/28 22:32:46;;;;;;;6.57;3.60;;;12.00;99.90;;;;;;4897502;29;20049;-63
2023/09/28 22:35:13;;;;;;;10.48;4.00;;;12.00;99.90;;;;;;4890680;29;20044;-63
2023/09/28 22:37:41;;;;;;;7.30;3.63;;;12.00;99.90;;;;;;4892135;29;20041;-64
2023/09/28 22:40:09;;;;;;;7.72;3.55;;;11.90;99.90;;;;;;4895417;29;20408;-64
2023/09/28 22:42:53;;;;;;;11.60;3.78;;;11.90;99.90;;;;;;4892774;29;20075;-64
2023/09/28 22:45:20;;;;;;;8.35;3.63;;;11.90;99.90;;;;;;4880844;29;20053;-64
2023/09/28 22:47:48;;;;;;;9.55;3.15;;;11.90;99.90;;;;;;4898439;29;20128;-64
2023/09/28 22:50:15;;;;;;;10.05;3.90;;;11.90;99.90;;;;;;4898127;29;20088;-64
2023/09/28 22:52:42;;;;;;;6.38;3.78;;;11.90;99.90;;;;;;4895072;29;20503;-64
2023/09/28 22:55:11;;;;;;;8.25;4.22;;;11.90;99.90;;;;;;4896553;29;20502;-64
2023/09/28 22:57:38;;;;;;;8.30;3.70;;;12.00;99.90;;;;;;4892489;29;20124;-64
2023/09/28 23:00:07;;;;;;;7.20;4.20;;;11.90;99.90;;;;;;4892969;29;20044;-64
2023/09/28 23:02:34;;;;;;;7.10;3.75;;;11.90;99.90;;;;;;4892095;29;20049;-64
2023/09/28 23:05:01;;;;;;;9.55;3.75;;;11.90;99.90;;;;;;4889152;29;20124;-64
2023/09/28 23:07:28;;;;;;;10.10;3.85;;;11.90;99.90;;;;;;4866639;29;20075;-64
2023/09/28 23:09:55;;;;;;;7.15;3.78;;;11.90;99.90;;;;;;4889105;29;20505;-64
2023/09/28 23:12:22;;;;;;;;;;;11.90;99.90;;;;;;4886475;29;20036;-64
2023/09/28 23:14:49;;;;;;;7.05;3.72;;;11.90;99.90;;;;;;4896998;29;19931;-64
2023/09/28 23:17:16;;;;;;;7.43;4.22;;;11.80;99.90;;;;;;4884582;29;20045;-64
2023/09/28 23:19:42;;;;;;;7.18;3.65;;;11.70;99.90;;;;;;4892938;29;20053;-64
2023/09/28 23:22:11;;;;;;;7.97;4.05;;;11.70;99.90;;;;;;4888617;29;20045;-64
2023/09/28 23:24:40;;;;;;;7.40;3.97;;;11.60;99.90;;;;;;4885373;29;20056;-64
2023/09/28 23:27:07;;;;;;;7.55;3.55;;;11.60;99.90;;;;;;4895980;29;20054;-64
2023/09/28 23:29:34;;;;;;;7.50;3.90;;;11.60;99.90;;;;;;4889432;29;20036;-64
2023/09/28 23:32:01;;;;;;;8.82;3.50;;;11.50;99.90;;;;;;4881368;29;20051;-64
2023/09/28 23:34:29;;;;;;;7.68;3.78;;;11.50;99.90;;;;;;4884501;29;20116;-64
2023/09/28 23:36:57;;;;;;;11.02;3.97;;;11.50;99.90;;;;;;4894815;29;20053;-64
2023/09/28 23:39:25;;;;;;;12.68;3.80;;;11.40;99.90;;;;;;4878775;29;20498;-64
2023/09/28 23:41:53;;;;;;;8.80;3.50;;;11.30;99.90;;;;;;4894374;29;20052;-64
2023/09/28 23:44:20;;;;;;;8.88;4.25;;;11.30;99.90;;;;;;4896356;29;20581;-64
2023/09/28 23:46:48;;;;;;;;;;;11.20;99.90;;;;;;4894258;29;20564;-64
2023/09/28 23:49:15;;;;;;;7.07;3.90;;;11.20;99.90;;;;;;4891490;29;20013;-64
2023/09/28 23:51:42;;;;;;;6.05;3.60;;;11.20;99.90;;;;;;4897093;29;20063;-64
2023/09/28 23:54:09;;;;;;;9.23;4.45;;;11.20;99.90;;;;;;4895911;29;20056;-64
2023/09/28 23:56:40;;;;;;;8.10;4.00;;;11.20;99.90;;;;;;4897146;29;20079;-64
2023/09/28 23:59:14;;;;;;;12.05;4.97;;;11.20;99.90;;;;;;4895689;29;20091;-64
